Time;durP1;ratioP1;P1;durP2;ratioP2;P2;SDS_P1;SDS_P2;PMS_P1;PMS_P2;Temp;Humidity;BMP_temperature;BMP_pressure;BME280_temperature;BME280_humidity;BME280_pressure;Samples;Min_cycle;Max_cycle;Signal;HPM_P1;HPM_P2
2022/11/19 00:02:36;;;;;;;14.80;5.82;;;;;;;;;;4948332;28;20607;-76
2022/11/19 00:05:08;;;;;;;14.90;5.80;;;;;;;;;;4895832;29;20072;-77
2022/11/19 00:07:35;;;;;;;16.70;6.00;;;;;;;;;;4922947;28;20134;-74
2022/11/19 00:10:02;;;;;;;13.88;5.28;;;;;;;;;;4910905;29;20043;-77
2022/11/19 00:15:13;;;;;;;13.10;5.50;;;;;;;;;;4913056;28;20077;-76
2022/11/19 00:17:44;;;;;;;14.32;6.43;;;;;;;;;;4898802;29;20566;-79
2022/11/19 00:28:05;;;;;;;14.45;5.95;;;;;;;;;;5024213;28;20412;-76
2022/11/19 00:30:33;;;;;;;13.98;5.70;;;;;;;;;;4973360;28;20057;-76
2022/11/19 00:38:08;;;;;;;13.45;5.63;;;;;;;;;;5068334;27;20721;-76
2022/11/19 00:40:35;;;;;;;13.25;5.50;;;;;;;;;;5027282;28;20053;-75
2022/11/19 00:45:51;;;;;;;12.13;5.35;;;;;;;;;;4913524;28;20060;-76
2022/11/19 00:51:07;;;;;;;10.88;5.07;;;;;;;;;;4974343;27;20416;-75
2022/11/19 00:53:34;;;;;;;14.35;5.57;;;;;;;;;;4968913;28;20053;-76
2022/11/19 00:56:01;;;;;;;12.32;5.28;;;;;;;;;;5005446;28;20059;-78
2022/11/19 00:58:28;;;;;;;14.40;5.93;;;;;;;;;;5027768;28;20058;-78
2022/11/19 01:00:55;;;;;;;12.35;5.30;;;;;;;;;;5016021;28;20050;-75
2022/11/19 01:03:22;;;;;;;11.45;5.38;;;;;;;;;;4975639;28;20061;-75
2022/11/19 01:05:48;;;;;;;12.43;5.47;;;;;;;;;;5032333;28;20057;-79
2022/11/19 01:08:17;;;;;;;13.10;5.50;;;;;;;;;;5028254;28;20050;-79
2022/11/19 01:10:44;;;;;;;14.63;4.97;;;;;;;;;;5015146;28;20096;-80
2022/11/19 01:16:08;;;;;;;12.73;5.45;;;;;;;;;;4959047;28;20047;-79
2022/11/19 01:18:35;;;;;;;11.82;5.10;;;;;;;;;;4989119;28;20149;-75
2022/11/19 01:21:02;;;;;;;15.35;5.72;;;;;;;;;;5013273;28;20511;-77
2022/11/19 01:23:30;;;;;;;14.02;5.43;;;;;;;;;;5027816;28;20065;-76
2022/11/19 01:25:57;;;;;;;12.07;5.57;;;;;;;;;;5014926;28;20129;-75
2022/11/19 01:28:24;;;;;;;13.18;6.05;;;;;;;;;;5012237;28;20619;-76
2022/11/19 01:31:00;;;;;;;13.25;5.60;;;;;;;;;;5008844;28;20140;-79
2022/11/19 01:33:26;;;;;;;12.32;5.47;;;;;;;;;;4999839;28;20053;-76
2022/11/19 01:35:57;;;;;;;13.25;5.65;;;;;;;;;;5015670;28;20067;-79
2022/11/19 01:38:24;;;;;;;12.57;5.55;;;;;;;;;;5011251;28;20049;-76
2022/11/19 01:40:52;;;;;;;14.57;5.57;;;;;;;;;;4993888;28;20057;-80
2022/11/19 01:43:19;;;;;;;14.05;6.28;;;;;;;;;;5001536;28;20074;-76
2022/11/19 01:45:47;;;;;;;13.15;6.40;;;;;;;;;;5025884;28;20144;-80
2022/11/19 01:48:17;;;;;;;13.95;6.18;;;;;;;;;;5009806;28;20049;-80
2022/11/19 01:50:48;;;;;;;13.77;5.60;;;;;;;;;;5011360;28;20137;-77
2022/11/19 01:53:16;;;;;;;12.85;5.63;;;;;;;;;;5011651;28;20345;-78
2022/11/19 01:55:43;;;;;;;13.98;6.20;;;;;;;;;;5028075;28;20053;-77
2022/11/19 01:58:12;;;;;;;13.32;5.95;;;;;;;;;;5013783;28;20061;-77
2022/11/19 02:00:39;;;;;;;12.98;6.18;;;;;;;;;;5015771;28;20054;-75
2022/11/19 02:03:06;;;;;;;12.40;5.85;;;;;;;;;;5025451;28;20074;-73
2022/11/19 02:05:40;;;;;;;11.73;5.53;;;;;;;;;;4987817;28;20109;-77
2022/11/19 02:08:08;;;;;;;12.20;5.78;;;;;;;;;;5017952;28;20391;-79
2022/11/19 02:10:58;;;;;;;13.13;5.72;;;;;;;;;;5014809;28;20136;-78
2022/11/19 02:13:30;;;;;;;14.30;5.82;;;;;;;;;;4984049;28;20054;-83
2022/11/19 02:15:59;;;;;;;13.60;6.18;;;;;;;;;;4990878;28;20049;-81
2022/11/19 02:18:34;;;;;;;16.15;6.18;;;;;;;;;;4995316;28;20142;-77
2022/11/19 02:21:11;;;;;;;14.68;6.60;;;;;;;;;;4991743;28;20073;-77
2022/11/19 02:23:49;;;;;;;12.57;6.03;;;;;;;;;;4998903;28;20056;-79
2022/11/19 02:26:42;;;;;;;12.55;5.63;;;;;;;;;;4987843;28;20121;-77
2022/11/19 02:29:17;;;;;;;14.88;6.38;;;;;;;;;;4973794;28;20054;-77
2022/11/19 02:31:48;;;;;;;16.83;6.40;;;;;;;;;;4993994;28;20050;-78
2022/11/19 02:34:16;;;;;;;14.02;6.25;;;;;;;;;;4974568;28;20057;-76
2022/11/19 02:36:45;;;;;;;15.70;6.10;;;;;;;;;;4977601;28;20054;-76
2022/11/19 02:39:15;;;;;;;15.13;7.18;;;;;;;;;;5010770;28;20304;-77
2022/11/19 02:41:45;;;;;;;14.32;6.82;;;;;;;;;;4996418;28;20049;-78
2022/11/19 02:47:03;;;;;;;15.10;6.35;;;;;;;;;;4993535;28;20069;-79
2022/11/19 02:49:31;;;;;;;14.60;6.57;;;;;;;;;;4997651;28;20056;-77
2022/11/19 02:51:59;;;;;;;16.92;6.75;;;;;;;;;;4997498;28;20049;-75
2022/11/19 02:54:26;;;;;;;14.15;6.57;;;;;;;;;;4981992;28;20051;-75
2022/11/19 02:56:53;;;;;;;15.90;7.07;;;;;;;;;;4993795;28;20050;-77
2022/11/19 03:04:53;;;;;;;15.13;6.90;;;;;;;;;;5013790;28;20057;-78
2022/11/19 03:07:21;;;;;;;17.33;7.68;;;;;;;;;;5001810;28;20092;-73
2022/11/19 03:09:49;;;;;;;15.55;7.18;;;;;;;;;;5002030;28;20053;-76
2022/11/19 03:12:20;;;;;;;16.95;7.47;;;;;;;;;;4990392;28;20058;-74
2022/11/19 03:17:41;;;;;;;16.15;7.20;;;;;;;;;;4976016;28;20054;-76
2022/11/19 03:20:10;;;;;;;16.77;7.70;;;;;;;;;;4980499;28;20373;-78
2022/11/19 03:22:39;;;;;;;18.40;8.10;;;;;;;;;;4976552;28;20082;-77
2022/11/19 03:25:08;;;;;;;;;;;;;;;;;;4983243;28;20049;-74
2022/11/19 03:27:36;;;;;;;14.57;6.65;;;;;;;;;;5004910;28;19925;-73
2022/11/19 03:30:04;;;;;;;16.52;7.32;;;;;;;;;;5000020;28;20049;-78
2022/11/19 03:32:32;;;;;;;15.52;8.00;;;;;;;;;;4997681;28;20132;-76
2022/11/19 03:35:03;;;;;;;14.98;7.30;;;;;;;;;;4997430;28;20058;-75
2022/11/19 03:37:33;;;;;;;18.27;8.48;;;;;;;;;;4989877;28;20132;-77
2022/11/19 03:40:01;;;;;;;18.92;8.52;;;;;;;;;;4995551;28;20058;-76
2022/11/19 03:42:29;;;;;;;17.38;7.68;;;;;;;;;;4999511;28;20049;-74
2022/11/19 03:45:03;;;;;;;18.30;8.40;;;;;;;;;;4988735;28;20050;-81
2022/11/19 03:47:32;;;;;;;18.42;8.30;;;;;;;;;;4992893;28;21378;-78
2022/11/19 03:50:01;;;;;;;15.75;7.90;;;;;;;;;;4996298;28;20045;-74
2022/11/19 03:52:30;;;;;;;19.02;8.77;;;;;;;;;;4999707;28;20089;-75
2022/11/19 03:54:57;;;;;;;19.38;9.02;;;;;;;;;;4998170;28;20061;-77
2022/11/19 03:57:24;;;;;;;20.08;8.88;;;;;;;;;;4992888;28;20465;-74
2022/11/19 03:59:50;;;;;;;18.45;8.25;;;;;;;;;;4996777;28;20072;-77
2022/11/19 04:02:18;;;;;;;20.40;9.02;;;;;;;;;;4999302;28;20053;-75
2022/11/19 04:04:44;;;;;;;17.42;8.20;;;;;;;;;;4993753;28;20069;-78
2022/11/19 04:07:12;;;;;;;19.98;9.07;;;;;;;;;;4991001;28;20061;-74
2022/11/19 04:09:40;;;;;;;17.33;8.00;;;;;;;;;;4995558;28;20069;-78
2022/11/19 04:12:08;;;;;;;15.70;7.80;;;;;;;;;;4998579;28;20049;-77
2022/11/19 04:14:35;;;;;;;22.08;9.35;;;;;;;;;;4995019;28;20050;-76
2022/11/19 04:17:02;;;;;;;17.20;8.60;;;;;;;;;;4998335;28;20118;-73
2022/11/19 04:19:28;;;;;;;18.48;8.52;;;;;;;;;;4993533;28;20068;-73
2022/11/19 04:21:55;;;;;;;19.60;8.75;;;;;;;;;;4997782;28;20053;-78
2022/11/19 04:24:22;;;;;;;18.02;8.00;;;;;;;;;;5016190;28;20053;-78
2022/11/19 04:26:50;;;;;;;18.05;8.27;;;;;;;;;;5010773;28;20058;-75
2022/11/19 04:29:16;;;;;;;18.02;8.70;;;;;;;;;;4991098;28;20078;-78
2022/11/19 04:31:43;;;;;;;18.67;8.57;;;;;;;;;;5011625;28;20057;-77
2022/11/19 04:34:10;;;;;;;17.55;8.95;;;;;;;;;;4996526;28;20052;-77
2022/11/19 04:36:38;;;;;;;22.55;8.75;;;;;;;;;;5026072;28;20062;-77
2022/11/19 04:39:06;;;;;;;19.50;9.35;;;;;;;;;;4996343;28;20063;-79
2022/11/19 04:41:33;;;;;;;17.80;8.95;;;;;;;;;;4983256;28;20050;-74
2022/11/19 04:44:01;;;;;;;18.77;9.15;;;;;;;;;;4998693;28;20077;-75
2022/11/19 04:46:28;;;;;;;21.00;9.10;;;;;;;;;;4999583;28;20065;-77
2022/11/19 04:48:54;;;;;;;23.13;9.13;;;;;;;;;;4998188;28;20050;-73
2022/11/19 04:51:21;;;;;;;21.35;8.82;;;;;;;;;;4989063;28;20133;-78
2022/11/19 04:53:48;;;;;;;20.10;9.27;;;;;;;;;;4998685;28;20130;-74
2022/11/19 04:56:15;;;;;;;21.92;9.35;;;;;;;;;;5009031;28;20078;-76
2022/11/19 04:58:41;;;;;;;19.65;9.40;;;;;;;;;;5000548;28;20454;-78
2022/11/19 05:01:10;;;;;;;21.73;9.07;;;;;;;;;;5002587;28;20034;-78
2022/11/19 05:03:37;;;;;;;;;;;;;;;;;;5012625;28;20054;-73
2022/11/19 05:06:03;;;;;;;15.55;7.40;;;;;;;;;;5015974;28;19971;-77
2022/11/19 05:08:30;;;;;;;21.10;9.00;;;;;;;;;;5020710;28;20049;-78
2022/11/19 05:10:57;;;;;;;19.80;9.13;;;;;;;;;;4990009;28;20050;-77
2022/11/19 05:13:23;;;;;;;20.92;9.20;;;;;;;;;;5004815;28;20054;-76
2022/11/19 05:15:50;;;;;;;20.60;8.73;;;;;;;;;;4991914;28;20053;-76
2022/11/19 05:18:19;;;;;;;19.75;9.38;;;;;;;;;;4995888;28;20133;-77
2022/11/19 05:20:47;;;;;;;18.08;8.88;;;;;;;;;;5000273;28;20061;-80
2022/11/19 05:23:13;;;;;;;18.73;9.15;;;;;;;;;;5002565;28;20057;-76
2022/11/19 05:25:40;;;;;;;18.20;8.40;;;;;;;;;;4999902;28;20108;-73
2022/11/19 05:28:09;;;;;;;23.27;9.57;;;;;;;;;;4994410;28;20077;-72
2022/11/19 05:30:35;;;;;;;21.80;9.10;;;;;;;;;;5001980;28;20264;-75
2022/11/19 05:33:05;;;;;;;20.73;8.70;;;;;;;;;;5007900;28;20046;-78
2022/11/19 05:35:33;;;;;;;20.30;9.75;;;;;;;;;;4996009;28;20062;-75
2022/11/19 05:38:00;;;;;;;20.38;9.45;;;;;;;;;;4997518;28;20054;-78
2022/11/19 05:40:26;;;;;;;23.20;9.80;;;;;;;;;;5000795;28;20151;-76
2022/11/19 05:42:53;;;;;;;20.17;9.27;;;;;;;;;;5002913;28;20156;-72
2022/11/19 05:45:20;;;;;;;18.73;9.57;;;;;;;;;;4978527;28;20047;-78
2022/11/19 05:47:47;;;;;;;20.75;9.32;;;;;;;;;;4997711;28;20124;-75
2022/11/19 05:50:14;;;;;;;22.42;9.65;;;;;;;;;;4997753;28;20125;-76
2022/11/19 05:52:42;;;;;;;21.58;9.50;;;;;;;;;;5000043;28;20062;-74
2022/11/19 05:55:11;;;;;;;21.80;9.85;;;;;;;;;;5009728;28;20058;-76
2022/11/19 05:57:38;;;;;;;19.98;8.98;;;;;;;;;;4998266;28;20088;-78
2022/11/19 06:00:05;;;;;;;19.67;8.75;;;;;;;;;;5014945;28;20129;-77
2022/11/19 06:02:31;;;;;;;20.48;8.68;;;;;;;;;;5007792;28;20072;-76
2022/11/19 06:04:58;;;;;;;18.95;9.10;;;;;;;;;;5020847;28;20058;-80
2022/11/19 06:07:25;;;;;;;20.55;9.30;;;;;;;;;;4994251;28;20088;-77
2022/11/19 06:09:53;;;;;;;20.52;9.05;;;;;;;;;;4998573;28;20064;-77
2022/11/19 06:12:20;;;;;;;19.60;9.13;;;;;;;;;;5001324;28;20073;-80
2022/11/19 06:14:47;;;;;;;17.55;8.52;;;;;;;;;;4992374;28;20097;-77
2022/11/19 06:17:14;;;;;;;19.25;9.45;;;;;;;;;;4977967;28;20073;-73
2022/11/19 06:19:40;;;;;;;23.20;9.68;;;;;;;;;;4977547;28;20054;-75
2022/11/19 06:22:07;;;;;;;20.40;9.55;;;;;;;;;;4975110;28;20050;-77
2022/11/19 06:24:34;;;;;;;20.20;9.35;;;;;;;;;;4994366;28;20157;-77
2022/11/19 06:27:02;;;;;;;20.52;9.00;;;;;;;;;;4980889;28;20054;-74
2022/11/19 06:29:29;;;;;;;23.95;9.63;;;;;;;;;;4994374;28;20057;-75
2022/11/19 06:31:56;;;;;;;20.88;9.20;;;;;;;;;;4998160;28;20215;-81
2022/11/19 06:34:23;;;;;;;22.15;9.38;;;;;;;;;;4999944;28;20052;-75
2022/11/19 06:36:50;;;;;;;22.42;9.38;;;;;;;;;;4997985;28;20084;-77
2022/11/19 06:39:16;;;;;;;18.58;8.68;;;;;;;;;;4992499;28;20497;-79
2022/11/19 06:41:43;;;;;;;24.38;10.02;;;;;;;;;;4998357;28;20113;-78
2022/11/19 06:44:12;;;;;;;21.67;9.73;;;;;;;;;;5000036;28;20143;-76
2022/11/19 06:46:39;;;;;;;22.48;9.45;;;;;;;;;;4999627;28;20050;-75
2022/11/19 06:49:08;;;;;;;22.05;9.75;;;;;;;;;;4991427;28;20068;-75
2022/11/19 06:51:37;;;;;;;21.58;9.20;;;;;;;;;;5014986;28;20211;-75
2022/11/19 06:54:04;;;;;;;19.63;9.75;;;;;;;;;;4998915;28;20057;-77
2022/11/19 06:56:30;;;;;;;20.95;9.43;;;;;;;;;;4997755;28;20056;-76
2022/11/19 06:58:58;;;;;;;23.70;10.23;;;;;;;;;;5015196;28;20068;-76
2022/11/19 07:01:26;;;;;;;20.25;8.77;;;;;;;;;;4990654;28;20042;-73
2022/11/19 07:03:53;;;;;;;19.33;8.30;;;;;;;;;;4998317;28;20454;-77
2022/11/19 07:06:20;;;;;;;20.33;8.95;;;;;;;;;;5000560;28;20240;-75
2022/11/19 07:08:46;;;;;;;19.38;9.32;;;;;;;;;;4996128;28;20226;-78
2022/11/19 07:11:28;;;;;;;19.08;8.57;;;;;;;;;;4998438;28;20070;-78
2022/11/19 07:13:57;;;;;;;;;;;;;;;;;;4996784;28;20059;-78
2022/11/19 07:16:24;;;;;;;18.13;7.65;;;;;;;;;;4986691;28;20414;-77
2022/11/19 07:18:52;;;;;;;22.10;8.93;;;;;;;;;;4999055;28;20067;-77
2022/11/19 07:21:19;;;;;;;19.55;9.00;;;;;;;;;;5002905;28;20442;-73
2022/11/19 07:23:48;;;;;;;18.65;8.48;;;;;;;;;;5013817;28;20058;-75
2022/11/19 07:26:15;;;;;;;19.95;8.80;;;;;;;;;;5004350;28;20085;-78
2022/11/19 07:28:41;;;;;;;23.20;10.15;;;;;;;;;;4995537;28;20141;-75
2022/11/19 07:31:12;;;;;;;18.77;8.25;;;;;;;;;;4989589;28;20045;-73
2022/11/19 07:33:39;;;;;;;21.25;9.13;;;;;;;;;;5007222;28;20058;-77
2022/11/19 07:36:09;;;;;;;19.88;9.25;;;;;;;;;;4995404;28;20156;-75
2022/11/19 07:38:36;;;;;;;19.20;8.32;;;;;;;;;;4996517;28;20064;-78
2022/11/19 07:42:47;;;;;;;20.05;9.02;;;;;;;;;;4991197;28;20133;-75
2022/11/19 07:43:49;;;;;;;19.83;8.80;;;;;;;;;;4994987;28;20053;-75
2022/11/19 07:46:16;;;;;;;18.98;8.70;;;;;;;;;;5001281;28;20046;-75
2022/11/19 07:48:43;;;;;;;23.33;9.20;;;;;;;;;;5001764;28;20057;-78
2022/11/19 07:51:12;;;;;;;19.83;8.93;;;;;;;;;;4999049;28;20073;-78
2022/11/19 07:53:39;;;;;;;17.42;8.23;;;;;;;;;;4985513;28;20045;-75
2022/11/19 07:56:06;;;;;;;20.05;9.18;;;;;;;;;;4987165;28;20062;-76
2022/11/19 07:58:36;;;;;;;22.13;9.23;;;;;;;;;;4989651;28;20065;-76
2022/11/19 08:01:09;;;;;;;19.33;8.63;;;;;;;;;;4989774;28;20045;-77
2022/11/19 08:03:36;;;;;;;20.27;8.57;;;;;;;;;;4980483;28;20213;-77
2022/11/19 08:06:03;;;;;;;19.95;9.05;;;;;;;;;;4998481;28;20137;-78
2022/11/19 08:08:32;;;;;;;20.48;8.85;;;;;;;;;;4993208;28;20050;-74
2022/11/19 08:11:02;;;;;;;22.92;9.05;;;;;;;;;;5003630;28;20065;-75
2022/11/19 08:13:29;;;;;;;20.23;8.13;;;;;;;;;;5005051;28;20065;-77
2022/11/19 08:15:59;;;;;;;18.20;8.43;;;;;;;;;;4987946;28;20050;-77
2022/11/19 08:18:24;;;;;;;19.92;9.07;;;;;;;;;;4998005;28;20143;-77
2022/11/19 08:20:54;;;;;;;19.23;8.35;;;;;;;;;;5010997;28;20111;-76
2022/11/19 08:23:21;;;;;;;19.48;9.15;;;;;;;;;;4987459;28;20058;-73
2022/11/19 08:25:51;;;;;;;21.33;8.55;;;;;;;;;;4997557;28;20068;-73
2022/11/19 08:28:28;;;;;;;20.52;9.40;;;;;;;;;;5009449;28;20046;-74
2022/11/19 08:31:06;;;;;;;;;;;;;;;;;;;;;
2022/11/19 08:33:42;;;;;;;19.23;8.93;;;;;;;;;;4978491;28;20082;-74
2022/11/19 08:36:10;;;;;;;18.17;7.75;;;;;;;;;;5004362;28;20088;-75
2022/11/19 08:38:37;;;;;;;19.25;8.52;;;;;;;;;;4997772;28;20102;-77
2022/11/19 08:44:00;;;;;;;19.33;8.82;;;;;;;;;;5012051;28;20069;-75
2022/11/19 08:49:17;;;;;;;18.02;8.57;;;;;;;;;;5008622;28;20316;-77
2022/11/19 08:51:46;;;;;;;19.33;8.65;;;;;;;;;;5020490;28;20519;-78
2022/11/19 08:54:16;;;;;;;17.70;8.32;;;;;;;;;;4990668;28;20050;-75
2022/11/19 08:56:47;;;;;;;19.65;8.70;;;;;;;;;;5009480;28;20110;-76
2022/11/19 08:59:24;;;;;;;20.17;8.75;;;;;;;;;;5019798;28;20050;-77
2022/11/19 09:01:51;;;;;;;20.13;8.30;;;;;;;;;;4990912;28;20046;-76
2022/11/19 09:04:20;;;;;;;16.90;8.10;;;;;;;;;;4999363;28;20138;-76
2022/11/19 09:06:50;;;;;;;18.13;7.70;;;;;;;;;;4999019;28;20054;-77
2022/11/19 09:09:18;;;;;;;16.00;7.63;;;;;;;;;;4984664;28;20219;-78
2022/11/19 09:12:00;;;;;;;19.50;8.50;;;;;;;;;;4999424;28;20092;-77
2022/11/19 09:17:19;;;;;;;17.83;8.05;;;;;;;;;;4976171;28;20049;-79
2022/11/19 09:19:45;;;;;;;17.92;8.27;;;;;;;;;;5004203;28;20057;-77
2022/11/19 09:22:17;;;;;;;16.50;7.65;;;;;;;;;;4980777;28;20061;-80
2022/11/19 09:25:02;;;;;;;20.02;8.63;;;;;;;;;;5002424;28;20057;-78
2022/11/19 09:27:38;;;;;;;15.65;7.78;;;;;;;;;;4993211;28;20057;-76
2022/11/19 09:30:17;;;;;;;17.80;7.97;;;;;;;;;;4978496;28;20062;-77
2022/11/19 09:35:30;;;;;;;17.63;7.70;;;;;;;;;;5017249;28;20167;-78
2022/11/19 11:06:52;;;;;;;12.35;6.10;;;;;;;;;;5490437;22;16301910;-70
2022/11/19 11:09:31;;;;;;;12.60;6.40;;;;;;;;;;6104548;23;20037;-69
2022/11/19 11:14:54;;;;;;;14.93;6.25;;;;;;;;;;6138980;23;20022;-68
2022/11/19 11:17:24;;;;;;;13.35;6.07;;;;;;;;;;6089322;23;20350;-69
2022/11/19 11:19:58;;;;;;;12.73;5.75;;;;;;;;;;6124483;23;20049;-68
2022/11/19 11:22:27;;;;;;;14.63;6.97;;;;;;;;;;6140867;23;20029;-69
2022/11/19 11:24:54;;;;;;;13.57;5.88;;;;;;;;;;6137060;23;20017;-69
2022/11/19 11:27:22;;;;;;;14.23;5.53;;;;;;;;;;6106721;23;20935;-69
2022/11/19 11:29:49;;;;;;;14.73;6.22;;;;;;;;;;6122497;23;20247;-70
2022/11/19 11:32:29;;;;;;;14.20;5.85;;;;;;;;;;6126634;23;20013;-68
2022/11/19 11:34:56;;;;;;;13.83;5.77;;;;;;;;;;6110162;23;20021;-71
2022/11/19 11:37:30;;;;;;;13.25;5.78;;;;;;;;;;6121282;23;20299;-72
2022/11/19 11:43:36;;;;;;;10.55;4.72;;;;;;;;;;6040853;23;20022;-69
2022/11/19 11:48:38;;;;;;;12.03;5.97;;;;;;;;;;5995026;23;20038;-68
2022/11/19 11:54:21;;;;;;;11.07;5.28;;;;;;;;;;6021631;23;20131;-70
2022/11/19 11:56:48;;;;;;;14.52;5.65;;;;;;;;;;6036688;23;20030;-68
2022/11/19 12:22:14;;;;;;;13.20;5.53;;;;;;;;;;5948500;23;20103;-69
2022/11/19 12:24:53;;;;;;;12.70;5.40;;;;;;;;;;5967496;23;20136;-66
2022/11/19 12:27:22;;;;;;;56.05;24.30;;;;;;;;;;5991763;23;20019;-67
2022/11/19 12:29:55;;;;;;;51.58;22.42;;;;;;;;;;5966626;23;20100;-69
2022/11/19 12:32:30;;;;;;;46.22;18.95;;;;;;;;;;6009535;23;20018;-69
2022/11/19 12:35:26;;;;;;;37.30;17.00;;;;;;;;;;6069004;23;20093;-70
2022/11/19 12:38:14;;;;;;;36.53;16.23;;;;;;;;;;6066721;23;20038;-69
2022/11/19 12:41:12;;;;;;;36.25;16.42;;;;;;;;;;6093537;23;20032;-67
2022/11/19 13:03:55;;;;;;;22.80;9.90;;;;;;;;;;5887533;23;20205;-69
2022/11/19 13:06:24;;;;;;;21.38;9.02;;;;;;;;;;6060131;23;20144;-68
2022/11/19 13:08:53;;;;;;;21.75;9.13;;;;;;;;;;6140339;23;20068;-67
2022/11/19 13:11:20;;;;;;;;;;;;;;;;;;6161672;23;20321;-67
2022/11/19 13:13:48;;;;;;;17.98;8.60;;;;;;;;;;6154394;23;19924;-67
2022/11/19 13:16:16;;;;;;;16.88;7.40;;;;;;;;;;6142168;23;20056;-68
2022/11/19 13:18:45;;;;;;;16.43;7.13;;;;;;;;;;6122966;23;20040;-67
2022/11/19 13:21:18;;;;;;;17.38;7.82;;;;;;;;;;6156792;22;20054;-66
2022/11/19 13:23:45;;;;;;;16.88;7.30;;;;;;;;;;6168653;23;20048;-67
2022/11/19 13:26:14;;;;;;;13.70;6.63;;;;;;;;;;6166236;23;20035;-66
2022/11/19 13:28:44;;;;;;;14.38;6.82;;;;;;;;;;6168897;23;20025;-67
2022/11/19 13:31:13;;;;;;;16.33;7.15;;;;;;;;;;6161372;23;20495;-67
2022/11/19 13:33:43;;;;;;;14.50;6.20;;;;;;;;;;6150995;23;20131;-66
2022/11/19 13:36:15;;;;;;;12.55;6.03;;;;;;;;;;6143364;23;20028;-68
2022/11/19 13:38:49;;;;;;;13.77;6.30;;;;;;;;;;6168763;23;20029;-66
2022/11/19 13:41:20;;;;;;;15.20;6.18;;;;;;;;;;6165973;22;20104;-69
2022/11/19 13:46:34;;;;;;;11.25;5.38;;;;;;;;;;6157206;23;20028;-67
2022/11/19 13:49:02;;;;;;;11.30;5.43;;;;;;;;;;5946440;23;116251;-68
2022/11/19 13:51:32;;;;;;;11.90;5.15;;;;;;;;;;6084979;23;20147;-69
2022/11/19 13:54:01;;;;;;;11.38;5.10;;;;;;;;;;6108181;23;20034;-66
2022/11/19 13:56:37;;;;;;;11.48;5.18;;;;;;;;;;6110245;23;20064;-69
2022/11/19 13:59:08;;;;;;;11.80;4.95;;;;;;;;;;6001825;23;20038;-68
2022/11/19 14:01:49;;;;;;;10.40;4.07;;;;;;;;;;6089225;23;20057;-67
2022/11/19 14:04:31;;;;;;;9.57;4.32;;;;;;;;;;6080916;23;20088;-67
2022/11/19 14:07:12;;;;;;;10.27;4.10;;;;;;;;;;6083681;23;20025;-66
2022/11/19 14:09:43;;;;;;;9.35;4.28;;;;;;;;;;6114804;23;20040;-64
2022/11/19 14:12:18;;;;;;;8.82;4.05;;;;;;;;;;6107275;23;20034;-67
2022/11/19 14:26:36;;;;;;;7.65;3.38;;;;;;;;;;6093792;23;20022;-65
2022/11/19 14:29:04;;;;;;;10.02;3.97;;;;;;;;;;6089461;23;20080;-66
2022/11/19 14:31:31;;;;;;;10.35;4.00;;;;;;;;;;6096308;23;20140;-66
2022/11/19 14:34:03;;;;;;;8.05;3.83;;;;;;;;;;6095992;23;20046;-66
2022/11/19 14:36:37;;;;;;;10.98;3.78;;;;;;;;;;6099879;23;20028;-64
2022/11/19 14:39:05;;;;;;;9.88;4.03;;;;;;;;;;6048943;23;20035;-66
2022/11/19 14:41:32;;;;;;;8.18;3.67;;;;;;;;;;6097469;23;20026;-66
2022/11/19 14:44:20;;;;;;;7.85;3.67;;;;;;;;;;6097162;23;20027;-65
2022/11/19 14:46:52;;;;;;;9.73;3.97;;;;;;;;;;6083256;23;20029;-65
2022/11/19 14:49:36;;;;;;;7.00;3.22;;;;;;;;;;6112811;23;20096;-66
2022/11/19 14:52:03;;;;;;;7.10;3.13;;;;;;;;;;6112504;23;20077;-65
2022/11/19 14:54:36;;;;;;;8.43;3.58;;;;;;;;;;6109981;23;20029;-66
2022/11/19 14:57:06;;;;;;;7.55;3.30;;;;;;;;;;6096497;23;20026;-67
2022/11/19 14:59:37;;;;;;;6.82;3.25;;;;;;;;;;6112128;23;20057;-65
2022/11/19 15:02:10;;;;;;;9.05;3.65;;;;;;;;;;6110119;23;20049;-66
2022/11/19 15:04:38;;;;;;;9.32;3.83;;;;;;;;;;6095410;23;20466;-67
2022/11/19 15:07:11;;;;;;;7.05;2.90;;;;;;;;;;6095320;23;20077;-69
2022/11/19 15:10:03;;;;;;;8.80;4.10;;;;;;;;;;6063119;23;20026;-68
2022/11/19 15:12:44;;;;;;;7.38;3.35;;;;;;;;;;6081945;23;20053;-66
2022/11/19 15:15:29;;;;;;;7.70;3.22;;;;;;;;;;6099802;23;20034;-67
2022/11/19 15:18:08;;;;;;;7.38;3.08;;;;;;;;;;6108774;23;20050;-65
2022/11/19 15:20:36;;;;;;;6.78;3.05;;;;;;;;;;6108144;23;20085;-65
2022/11/19 15:23:11;;;;;;;7.32;3.10;;;;;;;;;;6100417;23;20026;-66
2022/11/19 15:25:45;;;;;;;6.97;3.10;;;;;;;;;;6101738;23;20049;-65
2022/11/19 15:28:18;;;;;;;7.40;3.25;;;;;;;;;;6071892;23;20029;-65
2022/11/19 15:30:50;;;;;;;7.43;3.17;;;;;;;;;;6108957;23;20036;-66
2022/11/19 15:33:45;;;;;;;7.78;3.05;;;;;;;;;;6093051;23;20521;-67
2022/11/19 15:36:22;;;;;;;6.25;2.90;;;;;;;;;;6054517;23;20058;-67
2022/11/19 15:38:53;;;;;;;6.55;2.72;;;;;;;;;;6091512;23;20056;-67
2022/11/19 15:41:22;;;;;;;7.25;3.13;;;;;;;;;;6089141;23;20105;-66
2022/11/19 15:43:50;;;;;;;7.20;2.67;;;;;;;;;;6108504;23;20257;-67
2022/11/19 15:46:20;;;;;;;6.78;3.13;;;;;;;;;;6096855;23;20034;-67
2022/11/19 15:48:54;;;;;;;6.50;2.78;;;;;;;;;;6063527;23;20031;-67
2022/11/19 15:51:23;;;;;;;6.28;2.47;;;;;;;;;;6103346;23;20034;-66
2022/11/19 15:53:59;;;;;;;7.32;3.13;;;;;;;;;;6087301;23;20437;-66
2022/11/19 15:56:27;;;;;;;5.35;2.40;;;;;;;;;;6120964;23;20041;-65
2022/11/19 15:58:53;;;;;;;6.47;2.97;;;;;;;;;;6087066;23;20037;-67
2022/11/19 16:01:21;;;;;;;5.38;2.58;;;;;;;;;;6096988;23;20191;-66
2022/11/19 16:03:47;;;;;;;9.00;3.22;;;;;;;;;;6097734;23;20026;-67
2022/11/19 16:06:16;;;;;;;7.13;3.10;;;;;;;;;;6105140;23;20117;-66
2022/11/19 16:08:49;;;;;;;6.70;2.88;;;;;;;;;;6076914;23;20026;-66
2022/11/19 16:19:28;;;;;;;8.50;2.63;;;;;;;;;;6096639;23;20061;-67
2022/11/19 16:21:56;;;;;;;7.97;2.72;;;;;;;;;;6110618;23;20032;-66
2022/11/19 16:27:11;;;;;;;6.95;2.90;;;;;;;;;;6087696;23;20026;-66
2022/11/19 16:29:40;;;;;;;8.55;2.97;;;;;;;;;;6098610;23;20021;-66
2022/11/19 16:32:07;;;;;;;7.40;3.10;;;;;;;;;;6125921;23;20034;-66
2022/11/19 16:34:34;;;;;;;6.03;2.72;;;;;;;;;;6108371;23;20426;-66
2022/11/19 16:37:01;;;;;;;8.45;3.22;;;;;;;;;;6107971;23;20080;-67
2022/11/19 16:39:29;;;;;;;8.82;3.20;;;;;;;;;;6107799;23;20081;-66
2022/11/19 16:44:44;;;;;;;7.72;3.55;;;;;;;;;;6101925;23;20170;-67
2022/11/19 16:47:15;;;;;;;8.95;3.60;;;;;;;;;;6095521;23;20673;-66
2022/11/19 16:49:54;;;;;;;8.45;3.55;;;;;;;;;;6112876;23;20025;-66
2022/11/19 16:52:35;;;;;;;8.40;3.50;;;;;;;;;;6112443;23;20026;-67
2022/11/19 16:55:04;;;;;;;10.45;4.53;;;;;;;;;;6099512;23;20022;-67
2022/11/19 16:57:31;;;;;;;10.05;4.43;;;;;;;;;;6119468;23;20030;-68
2022/11/19 16:59:58;;;;;;;11.98;4.85;;;;;;;;;;6098928;23;20022;-68
2022/11/19 17:02:28;;;;;;;11.55;4.57;;;;;;;;;;6109141;23;20049;-69
2022/11/19 17:04:54;;;;;;;9.57;4.10;;;;;;;;;;6098401;23;20025;-67
2022/11/19 17:07:24;;;;;;;11.38;4.20;;;;;;;;;;6078551;23;20563;-68
2022/11/19 17:10:06;;;;;;;10.70;4.38;;;;;;;;;;6095964;23;20030;-68
2022/11/19 17:12:48;;;;;;;11.68;4.38;;;;;;;;;;6094065;23;20030;-67
2022/11/19 17:15:35;;;;;;;9.18;4.22;;;;;;;;;;6105345;23;20053;-68
2022/11/19 17:18:13;;;;;;;11.48;4.18;;;;;;;;;;6096691;23;20029;-68
2022/11/19 17:20:48;;;;;;;9.50;4.10;;;;;;;;;;6108644;23;20026;-68
2022/11/19 17:23:15;;;;;;;10.13;4.50;;;;;;;;;;6094891;23;20084;-68
2022/11/19 17:25:48;;;;;;;9.17;3.77;;;;;;;;;;6107905;23;20390;-68
2022/11/19 17:28:20;;;;;;;14.30;4.63;;;;;;;;;;6061531;23;21027;-68
2022/11/19 17:30:48;;;;;;;9.73;4.47;;;;;;;;;;6094338;23;20050;-67
2022/11/19 17:33:15;;;;;;;9.57;4.27;;;;;;;;;;6094184;23;20030;-68
2022/11/19 17:35:43;;;;;;;9.88;4.13;;;;;;;;;;6106619;23;20084;-68
2022/11/19 17:38:13;;;;;;;11.57;4.38;;;;;;;;;;6086975;23;21521;-68
2022/11/19 17:40:42;;;;;;;9.23;3.97;;;;;;;;;;6096180;23;20025;-68
2022/11/19 17:45:56;;;;;;;11.25;4.40;;;;;;;;;;6102347;23;20093;-69
2022/11/19 17:48:23;;;;;;;9.85;4.00;;;;;;;;;;6131647;23;20018;-68
2022/11/19 17:50:51;;;;;;;10.55;4.50;;;;;;;;;;6099496;23;20034;-69
2022/11/19 17:53:17;;;;;;;10.75;4.22;;;;;;;;;;6085873;23;20021;-67
2022/11/19 17:55:48;;;;;;;9.77;4.30;;;;;;;;;;6094148;23;20047;-68
2022/11/19 17:58:14;;;;;;;10.00;4.10;;;;;;;;;;6106379;23;20033;-68
2022/11/19 18:00:41;;;;;;;9.13;3.75;;;;;;;;;;6094633;23;20029;-68
2022/11/19 18:03:11;;;;;;;10.02;4.13;;;;;;;;;;6108025;23;20026;-68
2022/11/19 18:05:39;;;;;;;9.88;3.72;;;;;;;;;;6090596;23;20069;-68
2022/11/19 18:08:05;;;;;;;13.27;3.97;;;;;;;;;;5976709;23;20058;-69
2022/11/19 18:10:32;;;;;;;10.50;3.80;;;;;;;;;;6013374;23;20112;-69
2022/11/19 18:12:58;;;;;;;8.35;3.97;;;;;;;;;;6107891;23;20028;-68
2022/11/19 18:15:25;;;;;;;11.52;4.25;;;;;;;;;;6054168;23;20103;-68
2022/11/19 18:17:53;;;;;;;11.95;4.35;;;;;;;;;;6087495;23;20026;-68
2022/11/19 18:20:31;;;;;;;8.82;4.00;;;;;;;;;;6085407;23;20111;-71
2022/11/19 18:22:57;;;;;;;9.13;4.28;;;;;;;;;;6110324;23;20018;-69
2022/11/19 18:25:24;;;;;;;10.63;4.05;;;;;;;;;;6097921;23;20203;-69
2022/11/19 18:28:28;;;;;;;7.35;3.63;;;;;;;;;;6127763;23;20030;-69
2022/11/19 18:31:19;;;;;;;8.95;3.80;;;;;;;;;;6104153;23;20050;-71
2022/11/19 18:33:59;;;;;;;10.45;4.18;;;;;;;;;;6095051;23;20029;-70